KHBG/HBG METAR and TAF weather

Enter ICAO airport designator
Station Type Date Time Source
KHBG METAR 2021/05/12 00:53 UTC NOAA

KHBG 120053Z AUTO 13003KT 10SM FEW110 21/19 A3001 RMK AO2 SLP159 T02110194


Station Type Date Time Source
KHBG Decoded METAR 2021/05/12 00:53 UTC NOAA

HATTIESBURG CHAIN MUNICIPAL, MS, United States (KHBG) 31-16N 89-15W 44M
May 11, 2021 - 08:53 PM EDT / 2021.05.12 0053 UTC
Wind: from the SE (130 degrees) at 3 MPH (3 KT):0
Visibility: 10 mile(s):0
Sky conditions: mostly clear
Temperature: 70.0 F (21.1 C)
Dew Point: 66.9 F (19.4 C)
Relative Humidity: 90%
Pressure (altimeter): 30.01 in. Hg (1016 hPa)
ob: KHBG 120053Z AUTO 13003KT 10SM FEW110 21/19 A3001 RMK AO2 SLP159 T02110194
cycle: 1

Station Type Date Time Source
KHBG TAF 2021/05/11 21:21 UTC NOAA

TAF
AMD KHBG 112119Z 1121/1218 14006KT P6SM VCSH SCT025 BKN040
FM120400 10005KT 6SM -SHRA BR VCTS OVC015CB
FM120600 09005KT 4SM SHRA VCTS OVC007CB
FM121000 05005KT 4SM SHRA OVC007
FM121400 05005KT P6SM OVC007
FM121700 04006KT P6SM OVC015

Example: see airport list